Elmore, Ohio
Current Conditions -  °F | °C
As of 9:53 PM on Saturday 22 Nov 2014 (Local Time) from KTDZ Reporting Station
Overcast Overcast  
Wind Chill: 50°   Ceiling: 4100
Heat Index: 50°   Visibility: 10mi
Dew Point: 40°   Wind: 12mph
Humidity: 68%   Direction: 210°SSW
Pressure: 29.98"   Gusts: NA
Location:  41.48°N, 83.3°W
Report Text: KTDZ 230253Z AUTO 21010KT 10SM OVC041 10/04 A2998 RMK AO2 RAB0154E20 SLP155 P0000 60000 T01000044 58002 TSNO
Loading
Personal Weather Stations






























Interactive Weather Map New forecast layout! Learn more

10-Day Weather Forecast

Advertisements
Track Severe Weather on mobile